createdAt,value
2023-02-12T00:03:48.724Z,36.70
2023-02-12T00:09:58.749Z,37.30
2023-02-12T00:16:14.927Z,37.80
2023-02-12T00:22:22.979Z,37.60
2023-02-12T00:28:33.866Z,38.40
2023-02-12T00:34:45.925Z,37.30
2023-02-12T00:40:55.699Z,37.90
2023-02-12T00:47:07.600Z,37.50
2023-02-12T00:53:18.280Z,37.10
2023-02-12T00:59:25.768Z,36.70
2023-02-12T01:05:40.697Z,36.40
2023-02-12T01:11:50.360Z,36.80
2023-02-12T01:17:58.401Z,37.00
2023-02-12T01:24:09.158Z,37.00
2023-02-12T01:30:25.753Z,36.80
2023-02-12T01:36:37.616Z,36.40
2023-02-12T01:42:50.227Z,36.50
2023-02-12T01:49:01.165Z,37.00
2023-02-12T01:55:11.121Z,37.10
2023-02-12T02:01:23.925Z,37.20
2023-02-12T02:07:33.364Z,37.70
2023-02-12T02:13:57.760Z,37.60
2023-02-12T02:20:32.718Z,38.00
2023-02-12T02:26:56.058Z,38.00
2023-02-12T02:39:29.984Z,38.10
2023-02-12T02:45:43.387Z,37.50
2023-02-12T02:51:55.169Z,37.70
2023-02-12T02:58:04.850Z,37.60
2023-02-12T03:04:16.301Z,37.60
2023-02-12T03:10:26.212Z,37.40
2023-02-12T03:16:36.828Z,37.20
2023-02-12T03:22:45.684Z,37.40
2023-02-12T03:28:54.128Z,37.20
2023-02-12T03:35:12.438Z,38.90
2023-02-12T03:41:23.008Z,38.70
2023-02-12T03:47:35.198Z,38.20
2023-02-12T03:53:43.485Z,38.00
2023-02-12T03:59:53.210Z,37.70
2023-02-12T04:06:05.584Z,38.90
2023-02-12T04:12:27.986Z,40.00
2023-02-12T04:18:45.108Z,39.70
2023-02-12T04:25:00.429Z,39.50
2023-02-12T04:31:13.290Z,38.80
2023-02-12T04:37:24.997Z,38.80
2023-02-12T04:43:36.646Z,38.70
2023-02-12T04:49:47.665Z,38.60
2023-02-12T04:55:58.626Z,38.40
2023-02-12T05:02:08.595Z,38.10
2023-02-12T05:08:20.158Z,38.00
2023-02-12T05:14:33.080Z,37.60
2023-02-12T05:20:42.264Z,37.70
2023-02-12T05:26:53.302Z,37.30
2023-02-12T05:33:03.144Z,37.20
2023-02-12T05:39:13.700Z,37.30
2023-02-12T05:45:25.126Z,36.90
2023-02-12T05:51:33.587Z,37.60
2023-02-12T05:57:42.472Z,36.80
2023-02-12T06:03:49.876Z,36.80
2023-02-12T06:09:57.188Z,37.50
2023-02-12T06:16:06.470Z,36.90
2023-02-12T06:22:18.767Z,37.00
2023-02-12T06:28:27.221Z,36.70
2023-02-12T06:34:41.719Z,36.70
2023-02-12T06:40:53.054Z,36.70
2023-02-12T06:47:04.101Z,36.40
2023-02-12T06:53:13.254Z,36.50
2023-02-12T06:59:22.416Z,36.40
2023-02-12T07:05:29.838Z,36.60
2023-02-12T07:11:41.684Z,36.40
2023-02-12T07:17:49.422Z,36.50
2023-02-12T07:23:59.269Z,36.50
2023-02-12T07:30:11.854Z,36.00
2023-02-12T07:36:21.818Z,36.10
2023-02-12T07:42:32.125Z,36.20
2023-02-12T07:48:44.003Z,36.40
2023-02-12T07:54:53.113Z,36.80
2023-02-12T08:01:07.919Z,36.00
2023-02-12T08:07:18.901Z,36.10
2023-02-12T08:13:29.507Z,36.10
2023-02-12T08:19:40.463Z,36.20
2023-02-12T08:25:53.506Z,36.70
2023-02-12T08:32:03.594Z,36.20
2023-02-12T08:38:12.050Z,36.20
2023-02-12T08:44:20.864Z,36.10
2023-02-12T08:50:30.022Z,36.10
2023-02-12T08:56:39.448Z,36.20
2023-02-12T09:02:49.864Z,36.60
2023-02-12T09:09:00.566Z,36.10
2023-02-12T09:15:12.675Z,36.20
2023-02-12T09:21:20.329Z,36.20
2023-02-12T09:27:31.439Z,36.80
2023-02-12T09:33:38.873Z,36.40
2023-02-12T09:39:51.344Z,36.10
2023-02-12T09:46:03.793Z,36.20
2023-02-12T09:52:16.818Z,36.40
2023-02-12T09:58:30.103Z,36.70
2023-02-12T10:04:43.972Z,36.20
2023-02-12T10:10:56.474Z,36.10
2023-02-12T10:17:08.263Z,36.30
2023-02-12T10:23:25.402Z,36.20
2023-02-12T10:29:37.013Z,36.70
2023-02-12T10:35:48.322Z,36.60
2023-02-12T10:41:58.767Z,36.10
2023-02-12T10:48:13.964Z,36.30
2023-02-12T10:54:42.522Z,36.40
2023-02-12T11:00:53.651Z,36.70
2023-02-12T11:07:07.028Z,36.60
2023-02-12T11:13:25.334Z,36.30
2023-02-12T11:19:37.701Z,36.40
2023-02-12T11:25:50.365Z,36.50
2023-02-12T11:32:09.044Z,36.90
2023-02-12T11:38:26.653Z,36.40
2023-02-12T11:44:35.763Z,36.30
2023-02-12T11:50:45.552Z,36.50
2023-02-12T11:56:53.018Z,36.70
2023-02-12T12:03:05.166Z,36.80
2023-02-12T12:09:17.449Z,36.20
2023-02-12T12:15:43.833Z,36.30
2023-02-12T12:21:56.059Z,36.50
2023-02-12T12:28:08.972Z,36.80
2023-02-12T12:34:17.756Z,36.70
2023-02-12T12:40:37.234Z,36.70
2023-02-12T12:46:55.740Z,36.90
2023-02-12T12:53:11.300Z,36.90
2023-02-12T12:59:31.252Z,36.90
2023-02-12T13:06:00.028Z,36.80
2023-02-12T13:12:53.744Z,36.50
2023-02-12T13:19:04.868Z,36.10
2023-02-12T13:25:21.053Z,36.20
2023-02-12T13:31:34.578Z,36.00
2023-02-12T13:37:45.473Z,35.60
2023-02-12T13:44:06.170Z,35.20
2023-02-12T13:50:20.700Z,35.10
2023-02-12T13:56:38.268Z,36.50
2023-02-12T14:02:50.919Z,36.80
2023-02-12T14:09:07.835Z,35.90
2023-02-12T14:15:23.815Z,35.50
2023-02-12T14:21:40.877Z,35.60
2023-02-12T14:27:52.092Z,36.40
2023-02-12T14:34:18.363Z,37.00
2023-02-12T14:40:49.353Z,35.30
2023-02-12T14:46:59.907Z,35.40
2023-02-12T14:53:18.626Z,35.80
2023-02-12T14:59:30.446Z,36.20
2023-02-12T15:05:40.649Z,37.20
2023-02-12T15:11:49.510Z,37.60
2023-02-12T15:18:01.923Z,36.80
2023-02-12T15:24:14.232Z,36.00
2023-02-12T15:30:26.317Z,35.70
2023-02-12T15:36:36.527Z,35.70
2023-02-12T15:42:56.221Z,35.80
2023-02-12T15:49:05.641Z,35.10
2023-02-12T15:55:19.157Z,36.10
2023-02-12T16:01:31.403Z,36.30
2023-02-12T16:07:40.170Z,35.50
2023-02-12T16:13:49.555Z,35.50
2023-02-12T16:20:04.846Z,35.20
2023-02-12T16:26:15.770Z,34.80
2023-02-12T16:32:38.299Z,34.60
2023-02-12T16:38:48.313Z,34.50
2023-02-12T16:44:59.308Z,34.40
2023-02-12T16:51:09.446Z,34.20
2023-02-12T16:57:18.377Z,34.60
2023-02-12T17:03:29.309Z,34.90
2023-02-12T17:09:40.786Z,34.70
2023-02-12T17:15:54.148Z,34.30
2023-02-12T17:22:06.594Z,34.40
2023-02-12T17:28:19.296Z,34.50
2023-02-12T17:34:30.210Z,34.40
2023-02-12T17:40:38.152Z,34.60
2023-02-12T17:46:46.218Z,34.60
2023-02-12T17:52:53.685Z,34.00
2023-02-12T17:59:03.538Z,34.30
2023-02-12T18:05:14.405Z,34.30
2023-02-12T18:11:28.393Z,34.10
2023-02-12T18:17:35.987Z,34.10
2023-02-12T18:23:47.938Z,34.00
2023-02-12T18:29:58.908Z,33.90
2023-02-12T18:36:08.561Z,33.70
2023-02-12T18:42:17.688Z,33.80
2023-02-12T18:48:26.042Z,33.50
2023-02-12T18:54:35.439Z,33.30
2023-02-12T19:00:43.655Z,33.70
2023-02-12T19:06:55.544Z,33.30
2023-02-12T19:13:05.310Z,33.60
2023-02-12T19:19:16.787Z,33.20
2023-02-12T19:25:28.684Z,33.40
2023-02-12T19:31:39.425Z,34.00
2023-02-12T19:37:49.736Z,33.70
2023-02-12T19:44:01.772Z,33.70
2023-02-12T19:50:17.726Z,33.70
2023-02-12T19:56:25.279Z,33.80
2023-02-12T20:02:36.635Z,33.80
2023-02-12T20:08:45.772Z,33.90
2023-02-12T20:14:53.380Z,33.80
2023-02-12T20:21:06.745Z,33.70
2023-02-12T20:27:18.912Z,33.80
2023-02-12T20:33:28.753Z,34.00
2023-02-12T20:39:38.883Z,34.00
2023-02-12T20:45:49.046Z,34.20
2023-02-12T20:51:59.798Z,34.10
2023-02-12T20:58:10.636Z,33.80
2023-02-12T21:04:23.332Z,33.90
2023-02-12T21:10:31.321Z,34.00
2023-02-12T21:16:43.316Z,34.00
2023-02-12T21:22:52.586Z,34.70
2023-02-12T21:29:03.729Z,34.80
2023-02-12T21:35:15.676Z,34.00
2023-02-12T21:41:26.453Z,34.10
2023-02-12T21:47:36.324Z,34.30
2023-02-12T21:53:46.285Z,34.40
2023-02-12T21:59:53.594Z,34.70
2023-02-12T22:06:06.848Z,34.70
2023-02-12T22:12:17.176Z,34.90
2023-02-12T22:18:27.509Z,35.00
2023-02-12T22:24:38.420Z,34.40
2023-02-12T22:30:47.018Z,34.40
2023-02-12T22:36:55.962Z,34.60
2023-02-12T22:43:08.661Z,34.80
2023-02-12T22:49:17.686Z,35.30
2023-02-12T22:55:26.830Z,34.80
2023-02-12T23:01:41.270Z,34.60
2023-02-12T23:07:50.349Z,34.90
2023-02-12T23:13:58.499Z,35.10
2023-02-12T23:20:10.950Z,35.30
2023-02-12T23:26:23.432Z,35.60
2023-02-12T23:32:32.920Z,35.20
2023-02-12T23:38:40.409Z,34.80
2023-02-12T23:44:51.128Z,34.90
2023-02-12T23:51:03.928Z,35.10
2023-02-12T23:57:14.010Z,35.20
